sensor_id;sensor_type;location;lat;lon;timestamp;pressure;altitude;pressure_sealevel;temperature;humidity
31595;BME280;18200;48.726;8.892;2023-03-19T00:02:39;96477.53;;;22.96;31.87
31595;BME280;18200;48.726;8.892;2023-03-19T00:06:40;96473.16;;;23.33;30.91
31595;BME280;18200;48.726;8.892;2023-03-19T00:10:40;96459.47;;;23.21;31.24
31595;BME280;18200;48.726;8.892;2023-03-19T00:14:41;96456.28;;;21.75;33.38
31595;BME280;18200;48.726;8.892;2023-03-19T00:18:41;96462.44;;;22.79;32.34
31595;BME280;18200;48.726;8.892;2023-03-19T00:22:42;96470.56;;;22.70;32.14
31595;BME280;18200;48.726;8.892;2023-03-19T00:26:42;96465.56;;;23.59;31.18
31595;BME280;18200;48.726;8.892;2023-03-19T00:30:43;96471.81;;;23.03;31.00
31595;BME280;18200;48.726;8.892;2023-03-19T00:34:44;96471.63;;;22.85;31.63
31595;BME280;18200;48.726;8.892;2023-03-19T00:38:45;96467.75;;;23.08;31.15
31595;BME280;18200;48.726;8.892;2023-03-19T00:42:46;96478.56;;;23.11;30.53
31595;BME280;18200;48.726;8.892;2023-03-19T00:46:46;96487.22;;;22.13;32.94
31595;BME280;18200;48.726;8.892;2023-03-19T00:50:47;96480.53;;;22.64;31.77
31595;BME280;18200;48.726;8.892;2023-03-19T00:54:47;96491.03;;;21.90;33.10
31595;BME280;18200;48.726;8.892;2023-03-19T00:58:48;96499.72;;;22.39;33.39
31595;BME280;18200;48.726;8.892;2023-03-19T01:02:48;96508.56;;;22.56;32.46
31595;BME280;18200;48.726;8.892;2023-03-19T01:06:49;96516.25;;;22.73;31.96
31595;BME280;18200;48.726;8.892;2023-03-19T01:10:49;96531.78;;;22.13;32.67
31595;BME280;18200;48.726;8.892;2023-03-19T01:14:50;96546.13;;;22.30;32.55
31595;BME280;18200;48.726;8.892;2023-03-19T01:18:50;96557.44;;;21.91;33.02
31595;BME280;18200;48.726;8.892;2023-03-19T01:22:51;96565.56;;;22.61;32.65
31595;BME280;18200;48.726;8.892;2023-03-19T01:26:51;96560.19;;;22.57;31.07
31595;BME280;18200;48.726;8.892;2023-03-19T01:31:06;96558.88;;;21.67;34.04
31595;BME280;18200;48.726;8.892;2023-03-19T01:35:07;96565.22;;;20.86;36.63
31595;BME280;18200;48.726;8.892;2023-03-19T01:39:09;96563.84;;;23.13;33.84
31595;BME280;18200;48.726;8.892;2023-03-19T01:43:17;96561.03;;;23.04;34.29
31595;BME280;18200;48.726;8.892;2023-03-19T01:47:31;96546.91;;;23.28;35.30
31595;BME280;18200;48.726;8.892;2023-03-19T01:51:45;96523.16;;;24.02;34.21
31595;BME280;18200;48.726;8.892;2023-03-19T01:56:15;96529.25;;;22.94;35.83
31595;BME280;18200;48.726;8.892;2023-03-19T02:00:33;96527.00;;;24.35;34.23
31595;BME280;18200;48.726;8.892;2023-03-19T02:04:37;96525.25;;;23.21;35.62
31595;BME280;18200;48.726;8.892;2023-03-19T02:08:38;96522.16;;;23.31;35.74
31595;BME280;18200;48.726;8.892;2023-03-19T02:12:39;96518.06;;;23.70;35.47
31595;BME280;18200;48.726;8.892;2023-03-19T02:16:40;96528.66;;;23.59;35.96
31595;BME280;18200;48.726;8.892;2023-03-19T02:21:08;96529.78;;;23.49;36.40
31595;BME280;18200;48.726;8.892;2023-03-19T02:25:18;96528.28;;;23.69;36.11
31595;BME280;18200;48.726;8.892;2023-03-19T02:29:20;96539.50;;;23.84;36.32
31595;BME280;18200;48.726;8.892;2023-03-19T02:33:21;96530.88;;;24.16;35.58
31595;BME280;18200;48.726;8.892;2023-03-19T02:37:25;96539.78;;;23.30;36.55
31595;BME280;18200;48.726;8.892;2023-03-19T02:41:28;96542.69;;;23.61;36.17
31595;BME280;18200;48.726;8.892;2023-03-19T02:45:30;96541.28;;;24.21;36.18
31595;BME280;18200;48.726;8.892;2023-03-19T02:49:31;96544.84;;;23.32;36.31
31595;BME280;18200;48.726;8.892;2023-03-19T02:53:33;96537.31;;;23.79;35.80
31595;BME280;18200;48.726;8.892;2023-03-19T02:57:34;96537.41;;;23.20;37.08
31595;BME280;18200;48.726;8.892;2023-03-19T03:01:34;96535.19;;;23.40;36.66
31595;BME280;18200;48.726;8.892;2023-03-19T03:05:36;96535.69;;;23.13;36.63
31595;BME280;18200;48.726;8.892;2023-03-19T03:09:36;96533.72;;;23.13;37.63
31595;BME280;18200;48.726;8.892;2023-03-19T03:13:37;96534.94;;;23.12;37.53
31595;BME280;18200;48.726;8.892;2023-03-19T03:17:39;96542.75;;;23.70;36.83
31595;BME280;18200;48.726;8.892;2023-03-19T03:21:39;96548.91;;;23.40;36.25
31595;BME280;18200;48.726;8.892;2023-03-19T03:25:40;96550.75;;;22.58;37.79
31595;BME280;18200;48.726;8.892;2023-03-19T03:29:40;96547.63;;;23.06;37.91
31595;BME280;18200;48.726;8.892;2023-03-19T03:33:41;96555.16;;;23.40;37.13
31595;BME280;18200;48.726;8.892;2023-03-19T03:37:41;96552.84;;;23.39;37.30
31595;BME280;18200;48.726;8.892;2023-03-19T03:41:44;96553.59;;;23.73;36.36
31595;BME280;18200;48.726;8.892;2023-03-19T03:45:48;96553.97;;;23.63;36.05
31595;BME280;18200;48.726;8.892;2023-03-19T03:49:49;96555.44;;;23.55;36.44
31595;BME280;18200;48.726;8.892;2023-03-19T03:53:50;96562.72;;;23.49;35.95
31595;BME280;18200;48.726;8.892;2023-03-19T03:57:51;96556.06;;;23.59;36.27
31595;BME280;18200;48.726;8.892;2023-03-19T04:01:51;96549.69;;;23.62;36.70
31595;BME280;18200;48.726;8.892;2023-03-19T04:05:51;96560.41;;;23.69;35.74
31595;BME280;18200;48.726;8.892;2023-03-19T04:09:56;96558.38;;;23.82;36.15
31595;BME280;18200;48.726;8.892;2023-03-19T04:13:56;96577.72;;;22.97;37.09
31595;BME280;18200;48.726;8.892;2023-03-19T04:17:58;96579.38;;;23.42;37.03
31595;BME280;18200;48.726;8.892;2023-03-19T04:21:58;96570.50;;;23.72;36.69
31595;BME280;18200;48.726;8.892;2023-03-19T04:26:04;96575.56;;;23.27;36.44
31595;BME280;18200;48.726;8.892;2023-03-19T04:30:06;96580.06;;;23.21;37.55
31595;BME280;18200;48.726;8.892;2023-03-19T04:34:07;96581.81;;;23.40;37.28
31595;BME280;18200;48.726;8.892;2023-03-19T04:38:07;96584.97;;;23.51;37.04
31595;BME280;18200;48.726;8.892;2023-03-19T04:42:08;96581.84;;;23.83;36.10
31595;BME280;18200;48.726;8.892;2023-03-19T04:46:15;96576.13;;;23.22;36.80
31595;BME280;18200;48.726;8.892;2023-03-19T04:50:16;96581.75;;;23.05;37.54
31595;BME280;18200;48.726;8.892;2023-03-19T04:54:18;96595.34;;;23.56;36.73
31595;BME280;18200;48.726;8.892;2023-03-19T04:58:18;96605.81;;;22.35;38.72
31595;BME280;18200;48.726;8.892;2023-03-19T05:02:25;96595.63;;;23.49;37.15
31595;BME280;18200;48.726;8.892;2023-03-19T05:06:27;96600.38;;;23.70;36.34
31595;BME280;18200;48.726;8.892;2023-03-19T05:10:28;96590.25;;;23.33;36.71
31595;BME280;18200;48.726;8.892;2023-03-19T05:14:29;96602.84;;;23.77;35.95
31595;BME280;18200;48.726;8.892;2023-03-19T05:18:52;96602.78;;;23.34;37.01
31595;BME280;18200;48.726;8.892;2023-03-19T05:22:53;96605.59;;;23.43;36.70
31595;BME280;18200;48.726;8.892;2023-03-19T05:26:56;96603.25;;;23.54;36.61
31595;BME280;18200;48.726;8.892;2023-03-19T05:31:00;96606.38;;;23.31;35.89
31595;BME280;18200;48.726;8.892;2023-03-19T05:35:09;96606.75;;;22.82;37.74
31595;BME280;18200;48.726;8.892;2023-03-19T05:39:11;96609.94;;;23.65;36.67
31595;BME280;18200;48.726;8.892;2023-03-19T05:43:14;96618.66;;;23.73;36.53
31595;BME280;18200;48.726;8.892;2023-03-19T05:47:15;96622.06;;;23.17;36.31
31595;BME280;18200;48.726;8.892;2023-03-19T05:51:21;96629.00;;;23.69;36.47
31595;BME280;18200;48.726;8.892;2023-03-19T05:55:21;96620.84;;;23.78;36.09
31595;BME280;18200;48.726;8.892;2023-03-19T05:59:33;96624.91;;;22.64;37.78
31595;BME280;18200;48.726;8.892;2023-03-19T06:03:57;96633.94;;;23.02;36.93
31595;BME280;18200;48.726;8.892;2023-03-19T06:07:57;96639.97;;;22.84;37.97
31595;BME280;18200;48.726;8.892;2023-03-19T06:12:21;96631.31;;;23.58;36.82
31595;BME280;18200;48.726;8.892;2023-03-19T06:16:41;96637.44;;;23.40;36.83
31595;BME280;18200;48.726;8.892;2023-03-19T06:20:42;96636.97;;;23.42;36.67
31595;BME280;18200;48.726;8.892;2023-03-19T06:24:43;96641.69;;;23.29;37.07
31595;BME280;18200;48.726;8.892;2023-03-19T06:28:43;96634.03;;;22.98;37.80
31595;BME280;18200;48.726;8.892;2023-03-19T06:32:44;96639.38;;;22.64;38.00
31595;BME280;18200;48.726;8.892;2023-03-19T06:36:47;96638.66;;;22.76;37.87
31595;BME280;18200;48.726;8.892;2023-03-19T06:40:49;96634.28;;;22.37;38.49
31595;BME280;18200;48.726;8.892;2023-03-19T06:44:50;96627.91;;;22.94;38.16
31595;BME280;18200;48.726;8.892;2023-03-19T06:48:50;96628.53;;;22.98;37.06
31595;BME280;18200;48.726;8.892;2023-03-19T06:52:51;96633.50;;;23.03;37.67
31595;BME280;18200;48.726;8.892;2023-03-19T06:56:51;96641.06;;;22.99;37.24
31595;BME280;18200;48.726;8.892;2023-03-19T07:00:52;96645.31;;;23.38;37.13
31595;BME280;18200;48.726;8.892;2023-03-19T07:04:56;96638.69;;;23.95;36.23
31595;BME280;18200;48.726;8.892;2023-03-19T07:08:57;96638.34;;;24.27;35.73
31595;BME280;18200;48.726;8.892;2023-03-19T07:12:57;96648.16;;;24.16;35.46
31595;BME280;18200;48.726;8.892;2023-03-19T07:16:58;96651.84;;;24.22;34.74
31595;BME280;18200;48.726;8.892;2023-03-19T07:20:58;96650.16;;;24.03;35.11
31595;BME280;18200;48.726;8.892;2023-03-19T07:24:58;96661.34;;;24.51;34.69
31595;BME280;18200;48.726;8.892;2023-03-19T07:28:59;96662.38;;;24.66;34.10
31595;BME280;18200;48.726;8.892;2023-03-19T07:33:00;96653.00;;;24.55;33.39
31595;BME280;18200;48.726;8.892;2023-03-19T07:37:00;96658.81;;;24.88;33.32
31595;BME280;18200;48.726;8.892;2023-03-19T07:41:00;96665.72;;;24.61;32.81
31595;BME280;18200;48.726;8.892;2023-03-19T07:45:02;96670.13;;;24.37;32.73
31595;BME280;18200;48.726;8.892;2023-03-19T07:49:03;96658.50;;;24.55;33.15
31595;BME280;18200;48.726;8.892;2023-03-19T07:53:03;96669.25;;;24.71;32.66
31595;BME280;18200;48.726;8.892;2023-03-19T07:57:03;96668.78;;;24.63;32.76
31595;BME280;18200;48.726;8.892;2023-03-19T08:01:04;96659.78;;;24.41;32.87
31595;BME280;18200;48.726;8.892;2023-03-19T08:05:05;96664.72;;;24.55;32.65
31595;BME280;18200;48.726;8.892;2023-03-19T08:09:06;96667.75;;;25.01;32.43
31595;BME280;18200;48.726;8.892;2023-03-19T08:13:06;96670.75;;;25.24;32.15
31595;BME280;18200;48.726;8.892;2023-03-19T08:17:06;96654.34;;;25.61;30.87
31595;BME280;18200;48.726;8.892;2023-03-19T08:21:07;96668.28;;;25.66;31.13
31595;BME280;18200;48.726;8.892;2023-03-19T08:25:08;96667.69;;;25.71;31.03
31595;BME280;18200;48.726;8.892;2023-03-19T08:29:09;96660.97;;;25.72;30.74
31595;BME280;18200;48.726;8.892;2023-03-19T08:33:10;96670.47;;;25.89;30.88
31595;BME280;18200;48.726;8.892;2023-03-19T08:37:10;96662.97;;;25.99;30.74
31595;BME280;18200;48.726;8.892;2023-03-19T08:41:11;96666.31;;;26.03;30.00
31595;BME280;18200;48.726;8.892;2023-03-19T08:45:13;96660.66;;;25.97;29.44
31595;BME280;18200;48.726;8.892;2023-03-19T08:49:14;96664.69;;;26.14;29.07
31595;BME280;18200;48.726;8.892;2023-03-19T08:53:15;96668.94;;;26.25;29.01
31595;BME280;18200;48.726;8.892;2023-03-19T08:57:15;96669.09;;;26.39;29.69
31595;BME280;18200;48.726;8.892;2023-03-19T09:01:15;96675.59;;;26.69;29.00
31595;BME280;18200;48.726;8.892;2023-03-19T09:05:16;96674.06;;;26.86;27.94
31595;BME280;18200;48.726;8.892;2023-03-19T09:09:22;96677.50;;;26.27;29.67
31595;BME280;18200;48.726;8.892;2023-03-19T09:13:23;96671.28;;;26.95;28.74
31595;BME280;18200;48.726;8.892;2023-03-19T09:17:25;96669.66;;;27.21;27.87
31595;BME280;18200;48.726;8.892;2023-03-19T09:21:26;96674.66;;;27.32;27.73
31595;BME280;18200;48.726;8.892;2023-03-19T09:25:26;96683.97;;;28.00;28.27
31595;BME280;18200;48.726;8.892;2023-03-19T09:29:27;96669.59;;;28.63;26.66
31595;BME280;18200;48.726;8.892;2023-03-19T09:33:27;96666.25;;;28.88;26.01
31595;BME280;18200;48.726;8.892;2023-03-19T09:37:27;96668.25;;;27.58;27.80
31595;BME280;18200;48.726;8.892;2023-03-19T09:41:39;96668.16;;;28.82;26.03
31595;BME280;18200;48.726;8.892;2023-03-19T09:45:44;96657.66;;;28.86;25.48
31595;BME280;18200;48.726;8.892;2023-03-19T09:49:46;96665.34;;;29.11;24.04
31595;BME280;18200;48.726;8.892;2023-03-19T09:53:57;96652.97;;;26.56;27.57
31595;BME280;18200;48.726;8.892;2023-03-19T09:58:00;96649.06;;;28.55;25.25
31595;BME280;18200;48.726;8.892;2023-03-19T10:02:27;96646.75;;;29.27;24.53
31595;BME280;18200;48.726;8.892;2023-03-19T10:06:33;96645.63;;;29.19;25.11
31595;BME280;18200;48.726;8.892;2023-03-19T10:15:11;96660.53;;;29.06;24.63
31595;BME280;18200;48.726;8.892;2023-03-19T10:19:17;96655.22;;;27.83;26.16
31595;BME280;18200;48.726;8.892;2023-03-19T10:23:34;96645.94;;;29.96;24.02
31595;BME280;18200;48.726;8.892;2023-03-19T10:27:37;96654.34;;;29.46;24.22
31595;BME280;18200;48.726;8.892;2023-03-19T10:32:06;96653.38;;;29.49;24.20
31595;BME280;18200;48.726;8.892;2023-03-19T10:36:11;96658.56;;;28.25;25.41
31595;BME280;18200;48.726;8.892;2023-03-19T10:40:25;96650.50;;;29.24;24.21
31595;BME280;18200;48.726;8.892;2023-03-19T10:44:34;96641.22;;;29.27;24.05
31595;BME280;18200;48.726;8.892;2023-03-19T10:48:42;96641.63;;;29.20;24.38
31595;BME280;18200;48.726;8.892;2023-03-19T10:52:44;96645.84;;;29.00;23.88
31595;BME280;18200;48.726;8.892;2023-03-19T10:56:46;96637.13;;;29.97;23.03
31595;BME280;18200;48.726;8.892;2023-03-19T11:00:48;96636.66;;;30.24;22.91
31595;BME280;18200;48.726;8.892;2023-03-19T11:05:07;96647.00;;;28.94;23.44
31595;BME280;18200;48.726;8.892;2023-03-19T11:17:27;96632.63;;;29.79;22.65
31595;BME280;18200;48.726;8.892;2023-03-19T11:21:29;96636.69;;;28.65;24.18
31595;BME280;18200;48.726;8.892;2023-03-19T11:25:35;96626.81;;;29.57;23.16
31595;BME280;18200;48.726;8.892;2023-03-19T11:29:40;96635.53;;;29.70;23.57
31595;BME280;18200;48.726;8.892;2023-03-19T11:38:03;96625.88;;;29.11;23.78
31595;BME280;18200;48.726;8.892;2023-03-19T11:46:52;96621.72;;;29.36;23.83
31595;BME280;18200;48.726;8.892;2023-03-19T11:50:59;96604.88;;;29.94;23.17
31595;BME280;18200;48.726;8.892;2023-03-19T11:55:20;96597.25;;;29.49;23.42
31595;BME280;18200;48.726;8.892;2023-03-19T11:59:52;96598.16;;;30.52;22.14
31595;BME280;18200;48.726;8.892;2023-03-19T12:08:58;96594.13;;;30.27;22.57
31595;BME280;18200;48.726;8.892;2023-03-19T12:13:32;96604.41;;;29.06;23.58
31595;BME280;18200;48.726;8.892;2023-03-19T12:22:12;96598.41;;;29.42;24.07
31595;BME280;18200;48.726;8.892;2023-03-19T12:35:17;96607.97;;;28.48;25.51
31595;BME280;18200;48.726;8.892;2023-03-19T12:39:25;96605.00;;;28.22;25.67
31595;BME280;18200;48.726;8.892;2023-03-19T12:47:45;96606.06;;;28.25;25.88
31595;BME280;18200;48.726;8.892;2023-03-19T12:51:50;96597.66;;;29.82;24.23
31595;BME280;18200;48.726;8.892;2023-03-19T12:55:55;96602.88;;;29.74;24.14
31595;BME280;18200;48.726;8.892;2023-03-19T13:04:26;96602.72;;;27.44;26.31
31595;BME280;18200;48.726;8.892;2023-03-19T13:08:36;96602.91;;;28.90;25.08
31595;BME280;18200;48.726;8.892;2023-03-19T13:12:40;96605.69;;;28.76;24.83
31595;BME280;18200;48.726;8.892;2023-03-19T13:16:56;96605.72;;;29.25;24.26
31595;BME280;18200;48.726;8.892;2023-03-19T13:25:30;96600.09;;;28.70;25.09
31595;BME280;18200;48.726;8.892;2023-03-19T13:29:33;96606.00;;;28.63;25.29
31595;BME280;18200;48.726;8.892;2023-03-19T13:33:36;96604.94;;;28.46;25.11
31595;BME280;18200;48.726;8.892;2023-03-19T13:37:41;96606.56;;;28.38;24.91
31595;BME280;18200;48.726;8.892;2023-03-19T13:45:42;96609.31;;;28.38;26.39
31595;BME280;18200;48.726;8.892;2023-03-19T13:58:18;96608.84;;;28.54;26.26
31595;BME280;18200;48.726;8.892;2023-03-19T14:06:40;96604.25;;;28.95;25.14
31595;BME280;18200;48.726;8.892;2023-03-19T14:10:46;96601.91;;;29.23;25.14
31595;BME280;18200;48.726;8.892;2023-03-19T14:14:53;96594.31;;;28.01;24.96
31595;BME280;18200;48.726;8.892;2023-03-19T14:18:56;96599.91;;;27.92;26.34
31595;BME280;18200;48.726;8.892;2023-03-19T14:27:14;96574.22;;;30.54;23.93
31595;BME280;18200;48.726;8.892;2023-03-19T14:31:40;96575.25;;;30.88;23.03
31595;BME280;18200;48.726;8.892;2023-03-19T14:35:44;96581.00;;;31.16;22.32
31595;BME280;18200;48.726;8.892;2023-03-19T14:39:51;96593.31;;;28.42;24.36
31595;BME280;18200;48.726;8.892;2023-03-19T14:52:32;96585.22;;;28.68;26.25
31595;BME280;18200;48.726;8.892;2023-03-19T14:56:34;96588.56;;;28.57;26.31
31595;BME280;18200;48.726;8.892;2023-03-19T15:00:41;96580.50;;;30.24;24.94
31595;BME280;18200;48.726;8.892;2023-03-19T15:04:47;96592.13;;;28.92;26.97
31595;BME280;18200;48.726;8.892;2023-03-19T15:08:48;96589.50;;;28.25;27.96
31595;BME280;18200;48.726;8.892;2023-03-19T15:13:10;96601.28;;;27.73;28.65
31595;BME280;18200;48.726;8.892;2023-03-19T15:17:26;96613.88;;;27.88;27.86
31595;BME280;18200;48.726;8.892;2023-03-19T15:21:30;96611.84;;;26.94;29.68
31595;BME280;18200;48.726;8.892;2023-03-19T15:25:31;96614.06;;;26.81;30.26
31595;BME280;18200;48.726;8.892;2023-03-19T15:29:32;96616.22;;;26.68;31.03
31595;BME280;18200;48.726;8.892;2023-03-19T15:33:35;96622.72;;;26.38;31.39
31595;BME280;18200;48.726;8.892;2023-03-19T15:37:42;96610.19;;;26.19;32.15
31595;BME280;18200;48.726;8.892;2023-03-19T15:41:45;96617.81;;;25.69;32.79
31595;BME280;18200;48.726;8.892;2023-03-19T15:45:49;96628.84;;;25.51;32.61
31595;BME280;18200;48.726;8.892;2023-03-19T15:50:05;96622.16;;;26.66;31.23
31595;BME280;18200;48.726;8.892;2023-03-19T15:54:08;96629.13;;;26.53;31.39
31595;BME280;18200;48.726;8.892;2023-03-19T15:58:11;96654.72;;;25.23;34.17
31595;BME280;18200;48.726;8.892;2023-03-19T16:14:38;96665.09;;;24.66;33.74
31595;BME280;18200;48.726;8.892;2023-03-19T16:22:54;96664.84;;;24.21;33.62
31595;BME280;18200;48.726;8.892;2023-03-19T16:26:57;96671.22;;;24.92;31.70
31595;BME280;18200;48.726;8.892;2023-03-19T16:30:59;96670.13;;;24.81;31.53
31595;BME280;18200;48.726;8.892;2023-03-19T16:35:05;96674.16;;;24.98;31.97
31595;BME280;18200;48.726;8.892;2023-03-19T16:39:22;96675.06;;;26.47;29.78
31595;BME280;18200;48.726;8.892;2023-03-19T16:43:23;96692.81;;;26.19;29.75
31595;BME280;18200;48.726;8.892;2023-03-19T16:47:32;96687.53;;;25.57;31.77
31595;BME280;18200;48.726;8.892;2023-03-19T16:51:33;96696.75;;;26.72;30.37
31595;BME280;18200;48.726;8.892;2023-03-19T16:55:34;96713.00;;;26.61;29.99
31595;BME280;18200;48.726;8.892;2023-03-19T16:59:34;96711.97;;;27.09;31.29
31595;BME280;18200;48.726;8.892;2023-03-19T17:03:36;96722.63;;;27.34;30.34
31595;BME280;18200;48.726;8.892;2023-03-19T17:07:36;96718.44;;;27.06;30.98
31595;BME280;18200;48.726;8.892;2023-03-19T17:11:39;96723.31;;;27.11;31.77
31595;BME280;18200;48.726;8.892;2023-03-19T17:15:40;96720.25;;;27.09;31.93
31595;BME280;18200;48.726;8.892;2023-03-19T17:19:41;96732.63;;;27.23;31.19
31595;BME280;18200;48.726;8.892;2023-03-19T17:23:42;96738.06;;;26.99;31.60
31595;BME280;18200;48.726;8.892;2023-03-19T17:27:43;96747.75;;;26.13;32.96
31595;BME280;18200;48.726;8.892;2023-03-19T17:31:43;96757.06;;;26.15;34.21
31595;BME280;18200;48.726;8.892;2023-03-19T17:35:44;96758.63;;;26.98;32.79
31595;BME280;18200;48.726;8.892;2023-03-19T17:39:44;96757.47;;;27.23;32.31
31595;BME280;18200;48.726;8.892;2023-03-19T17:43:46;96763.41;;;27.30;31.58
31595;BME280;18200;48.726;8.892;2023-03-19T17:47:48;96762.38;;;27.19;32.00
31595;BME280;18200;48.726;8.892;2023-03-19T17:51:50;96769.59;;;26.07;33.44
31595;BME280;18200;48.726;8.892;2023-03-19T17:55:50;96771.19;;;26.63;33.17
31595;BME280;18200;48.726;8.892;2023-03-19T17:59:51;96765.69;;;26.45;32.74
31595;BME280;18200;48.726;8.892;2023-03-19T18:03:51;96773.81;;;25.81;34.74
31595;BME280;18200;48.726;8.892;2023-03-19T18:07:54;96784.88;;;24.98;35.78
31595;BME280;18200;48.726;8.892;2023-03-19T18:11:55;96782.69;;;25.15;36.08
31595;BME280;18200;48.726;8.892;2023-03-19T18:15:55;96781.94;;;24.93;37.04
31595;BME280;18200;48.726;8.892;2023-03-19T18:19:56;96783.66;;;25.30;36.03
31595;BME280;18200;48.726;8.892;2023-03-19T18:23:57;96794.03;;;25.87;35.14
31595;BME280;18200;48.726;8.892;2023-03-19T18:27:57;96790.44;;;26.17;34.53
31595;BME280;18200;48.726;8.892;2023-03-19T18:32:04;96788.53;;;25.87;34.62
31595;BME280;18200;48.726;8.892;2023-03-19T18:36:06;96787.00;;;25.95;34.63
31595;BME280;18200;48.726;8.892;2023-03-19T18:40:12;96791.59;;;25.98;34.99
31595;BME280;18200;48.726;8.892;2023-03-19T18:44:12;96792.25;;;25.32;35.10
31595;BME280;18200;48.726;8.892;2023-03-19T18:48:25;96798.28;;;25.79;35.03
31595;BME280;18200;48.726;8.892;2023-03-19T18:52:26;96806.59;;;25.49;34.69
31595;BME280;18200;48.726;8.892;2023-03-19T18:56:29;96804.81;;;24.90;36.05
31595;BME280;18200;48.726;8.892;2023-03-19T19:00:32;96814.91;;;25.36;36.02
31595;BME280;18200;48.726;8.892;2023-03-19T19:04:33;96820.50;;;25.54;35.18
31595;BME280;18200;48.726;8.892;2023-03-19T19:08:33;96826.09;;;25.20;35.71
31595;BME280;18200;48.726;8.892;2023-03-19T19:12:35;96831.00;;;25.77;35.37
31595;BME280;18200;48.726;8.892;2023-03-19T19:16:37;96834.03;;;25.70;35.08
31595;BME280;18200;48.726;8.892;2023-03-19T19:20:39;96841.63;;;25.35;34.83
31595;BME280;18200;48.726;8.892;2023-03-19T19:24:39;96840.38;;;25.27;35.02
31595;BME280;18200;48.726;8.892;2023-03-19T19:28:40;96831.91;;;25.22;35.43
31595;BME280;18200;48.726;8.892;2023-03-19T19:32:40;96825.53;;;25.03;35.70
31595;BME280;18200;48.726;8.892;2023-03-19T19:36:41;96830.69;;;24.45;34.90
31595;BME280;18200;48.726;8.892;2023-03-19T19:40:43;96833.72;;;24.94;35.79
31595;BME280;18200;48.726;8.892;2023-03-19T19:44:51;96837.66;;;24.37;35.24
31595;BME280;18200;48.726;8.892;2023-03-19T19:48:52;96830.88;;;24.63;36.17
31595;BME280;18200;48.726;8.892;2023-03-19T19:52:54;96838.03;;;24.61;36.05
31595;BME280;18200;48.726;8.892;2023-03-19T19:56:55;96840.44;;;24.59;35.42
31595;BME280;18200;48.726;8.892;2023-03-19T20:01:00;96834.03;;;24.40;35.77
31595;BME280;18200;48.726;8.892;2023-03-19T20:05:00;96852.53;;;24.02;35.62
31595;BME280;18200;48.726;8.892;2023-03-19T20:09:02;96861.31;;;23.97;36.78
31595;BME280;18200;48.726;8.892;2023-03-19T20:13:04;96850.31;;;24.22;35.22
31595;BME280;18200;48.726;8.892;2023-03-19T20:17:04;96868.34;;;24.23;35.69
31595;BME280;18200;48.726;8.892;2023-03-19T20:21:05;96866.03;;;23.84;35.54
31595;BME280;18200;48.726;8.892;2023-03-19T20:25:06;96872.94;;;24.01;35.26
31595;BME280;18200;48.726;8.892;2023-03-19T20:29:13;96871.38;;;24.00;35.36
31595;BME280;18200;48.726;8.892;2023-03-19T20:33:13;96880.84;;;23.99;35.52
31595;BME280;18200;48.726;8.892;2023-03-19T20:37:15;96875.91;;;23.94;34.89
31595;BME280;18200;48.726;8.892;2023-03-19T20:41:18;96879.09;;;23.80;35.36
31595;BME280;18200;48.726;8.892;2023-03-19T20:45:22;96886.75;;;23.72;35.29
31595;BME280;18200;48.726;8.892;2023-03-19T20:49:23;96888.38;;;23.45;34.47
31595;BME280;18200;48.726;8.892;2023-03-19T20:53:24;96896.66;;;23.29;35.24
31595;BME280;18200;48.726;8.892;2023-03-19T20:57:26;96892.34;;;23.28;35.10
31595;BME280;18200;48.726;8.892;2023-03-19T21:01:28;96895.69;;;23.06;35.45
31595;BME280;18200;48.726;8.892;2023-03-19T21:05:37;96895.28;;;23.08;35.89
31595;BME280;18200;48.726;8.892;2023-03-19T21:09:37;96906.75;;;22.26;36.69
31595;BME280;18200;48.726;8.892;2023-03-19T21:13:38;96903.84;;;22.17;36.77
31595;BME280;18200;48.726;8.892;2023-03-19T21:17:39;96909.56;;;22.06;37.95
31595;BME280;18200;48.726;8.892;2023-03-19T21:21:39;96894.78;;;22.68;36.99
31595;BME280;18200;48.726;8.892;2023-03-19T21:25:42;96908.91;;;22.67;36.36
31595;BME280;18200;48.726;8.892;2023-03-19T21:29:43;96909.97;;;22.85;35.86
31595;BME280;18200;48.726;8.892;2023-03-19T21:33:44;96910.53;;;22.80;36.33
31595;BME280;18200;48.726;8.892;2023-03-19T21:37:45;96915.13;;;21.87;37.01
31595;BME280;18200;48.726;8.892;2023-03-19T21:41:46;96926.63;;;21.58;37.99
31595;BME280;18200;48.726;8.892;2023-03-19T21:45:48;96936.53;;;21.72;37.17
31595;BME280;18200;48.726;8.892;2023-03-19T21:49:49;96928.31;;;22.24;37.38
31595;BME280;18200;48.726;8.892;2023-03-19T21:53:50;96939.78;;;22.19;36.69
31595;BME280;18200;48.726;8.892;2023-03-19T21:57:53;96937.41;;;22.21;36.83
31595;BME280;18200;48.726;8.892;2023-03-19T22:01:55;96940.97;;;22.34;37.05
31595;BME280;18200;48.726;8.892;2023-03-19T22:05:56;96941.75;;;22.34;37.01
31595;BME280;18200;48.726;8.892;2023-03-19T22:09:57;96938.25;;;22.82;36.67
31595;BME280;18200;48.726;8.892;2023-03-19T22:14:17;96946.03;;;22.52;36.15
31595;BME280;18200;48.726;8.892;2023-03-19T22:18:19;96945.69;;;22.82;36.74
31595;BME280;18200;48.726;8.892;2023-03-19T22:22:19;96959.47;;;22.46;36.47
31595;BME280;18200;48.726;8.892;2023-03-19T22:26:24;96957.09;;;21.77;37.46
31595;BME280;18200;48.726;8.892;2023-03-19T22:30:37;96962.69;;;22.09;37.02
31595;BME280;18200;48.726;8.892;2023-03-19T22:34:37;96964.13;;;21.78;37.26
31595;BME280;18200;48.726;8.892;2023-03-19T22:38:41;96968.44;;;22.30;36.95
31595;BME280;18200;48.726;8.892;2023-03-19T22:42:45;96975.00;;;22.17;37.27
31595;BME280;18200;48.726;8.892;2023-03-19T22:46:46;96982.13;;;22.14;36.91
31595;BME280;18200;48.726;8.892;2023-03-19T22:50:46;96982.28;;;22.59;36.87
31595;BME280;18200;48.726;8.892;2023-03-19T22:54:46;96988.22;;;22.54;36.12
31595;BME280;18200;48.726;8.892;2023-03-19T22:58:47;96988.25;;;22.86;36.38
31595;BME280;18200;48.726;8.892;2023-03-19T23:02:54;96978.47;;;23.01;36.37
31595;BME280;18200;48.726;8.892;2023-03-19T23:06:57;96976.56;;;23.14;36.12
31595;BME280;18200;48.726;8.892;2023-03-19T23:10:58;96980.34;;;22.72;35.91